Kezdőlap
METAR-TAF:

METAR-TAF

Repülőterek :

Puerto Peñasco, Mexikó

földrajzi szélesség: 31-21-07N, földrajzi hosszúság: 113-18-20W, magasság: 22 m

Jelenlegi meteorológiai megfigyelések

A jelentés 14 órával és 58 perccel ezelõtt készült, 22:40 UTC
Dél-délnyugati szél 10 kt
Hőmérséklet 32°C
Páratartalom 17%
Légköri nyomás 1010 hPa
Látótávolság: 16.1 km
Derült ég

METAR: MMPE 262240Z 21010KT 10SM SKC 32/04 A2983

Idő: 06:38 (13:38 UTC)


TAF: hiányzik

Meteorológiai megfigyelések és előrejelzések több, mint 4000 repülőtéren (METAR és TAF jelentéseket).

A térképen piros és sárga pontok jelzik az elérhető meteorológiai állomásokat.

Mozgassa az egeret a pont fölött, hogy megjelenjen az állomás neve.

Azután kattintson az időjárási megfigyelések és előrejelzések megtekintéséhez.

A térkép megváltoztatása: kattintson a fekete keresztel jelölt zöld gombra ráközelítéshez, a vonallal jelölt zöld gombra távolításhoz, vagy a zöld nyilakra a szomszédos térképek eléréséhez.


METAR-TAF: